sensor_id;sensor_type;location;lat;lon;timestamp;P1;durP1;ratioP1;P2;durP2;ratioP2
25758;SDS011;13604;52.496;13.456;2023-09-12T00:00:38;20.38;;;14.85;;
25758;SDS011;13604;52.496;13.456;2023-09-12T00:03:03;21.08;;;14.40;;
25758;SDS011;13604;52.496;13.456;2023-09-12T00:05:28;24.52;;;14.57;;
25758;SDS011;13604;52.496;13.456;2023-09-12T00:07:54;18.77;;;14.65;;
25758;SDS011;13604;52.496;13.456;2023-09-12T00:10:19;22.05;;;15.32;;
25758;SDS011;13604;52.496;13.456;2023-09-12T00:12:45;19.48;;;14.82;;
25758;SDS011;13604;52.496;13.456;2023-09-12T00:15:10;22.08;;;14.85;;
25758;SDS011;13604;52.496;13.456;2023-09-12T00:17:35;21.33;;;14.60;;
25758;SDS011;13604;52.496;13.456;2023-09-12T00:20:01;21.48;;;14.98;;
25758;SDS011;13604;52.496;13.456;2023-09-12T00:22:26;23.10;;;15.13;;
25758;SDS011;13604;52.496;13.456;2023-09-12T00:24:51;22.48;;;16.58;;
25758;SDS011;13604;52.496;13.456;2023-09-12T00:27:17;22.55;;;15.15;;
25758;SDS011;13604;52.496;13.456;2023-09-12T00:29:42;22.58;;;14.45;;
25758;SDS011;13604;52.496;13.456;2023-09-12T00:32:07;21.52;;;15.48;;
25758;SDS011;13604;52.496;13.456;2023-09-12T00:34:32;25.33;;;15.80;;
25758;SDS011;13604;52.496;13.456;2023-09-12T00:36:58;19.65;;;15.50;;
25758;SDS011;13604;52.496;13.456;2023-09-12T00:39:23;20.83;;;15.15;;
25758;SDS011;13604;52.496;13.456;2023-09-12T00:41:48;28.27;;;16.42;;
25758;SDS011;13604;52.496;13.456;2023-09-12T00:44:14;22.30;;;14.80;;
25758;SDS011;13604;52.496;13.456;2023-09-12T00:46:39;21.15;;;15.50;;
25758;SDS011;13604;52.496;13.456;2023-09-12T00:49:05;19.65;;;14.85;;
25758;SDS011;13604;52.496;13.456;2023-09-12T00:51:32;25.27;;;15.57;;
25758;SDS011;13604;52.496;13.456;2023-09-12T00:53:58;22.10;;;14.80;;
25758;SDS011;13604;52.496;13.456;2023-09-12T00:56:24;20.77;;;15.52;;
25758;SDS011;13604;52.496;13.456;2023-09-12T00:58:51;24.67;;;14.57;;
25758;SDS011;13604;52.496;13.456;2023-09-12T01:01:17;24.05;;;14.95;;
25758;SDS011;13604;52.496;13.456;2023-09-12T01:03:43;22.05;;;15.85;;
25758;SDS011;13604;52.496;13.456;2023-09-12T01:06:08;17.90;;;14.25;;
25758;SDS011;13604;52.496;13.456;2023-09-12T01:08:34;22.30;;;15.65;;
25758;SDS011;13604;52.496;13.456;2023-09-12T01:11:02;23.77;;;16.50;;
25758;SDS011;13604;52.496;13.456;2023-09-12T01:13:27;22.25;;;15.57;;
25758;SDS011;13604;52.496;13.456;2023-09-12T01:15:53;23.10;;;16.23;;
25758;SDS011;13604;52.496;13.456;2023-09-12T01:18:18;21.33;;;14.30;;
25758;SDS011;13604;52.496;13.456;2023-09-12T01:20:50;19.75;;;15.30;;
25758;SDS011;13604;52.496;13.456;2023-09-12T01:24:25;21.80;;;15.15;;
25758;SDS011;13604;52.496;13.456;2023-09-12T01:30:02;18.20;;;15.07;;
25758;SDS011;13604;52.496;13.456;2023-09-12T01:32:31;20.05;;;15.50;;
25758;SDS011;13604;52.496;13.456;2023-09-12T01:34:57;23.00;;;15.68;;
25758;SDS011;13604;52.496;13.456;2023-09-12T01:37:22;22.83;;;15.07;;
25758;SDS011;13604;52.496;13.456;2023-09-12T01:39:48;21.65;;;15.18;;
25758;SDS011;13604;52.496;13.456;2023-09-12T01:42:14;26.67;;;15.60;;
25758;SDS011;13604;52.496;13.456;2023-09-12T01:44:45;24.25;;;15.23;;
25758;SDS011;13604;52.496;13.456;2023-09-12T01:47:11;20.20;;;15.13;;
25758;SDS011;13604;52.496;13.456;2023-09-12T01:49:39;24.25;;;14.93;;
25758;SDS011;13604;52.496;13.456;2023-09-12T01:52:07;21.05;;;16.35;;
25758;SDS011;13604;52.496;13.456;2023-09-12T01:54:34;22.48;;;16.02;;
25758;SDS011;13604;52.496;13.456;2023-09-12T01:57:01;21.55;;;15.73;;
25758;SDS011;13604;52.496;13.456;2023-09-12T01:59:28;21.65;;;15.77;;
25758;SDS011;13604;52.496;13.456;2023-09-12T02:01:54;20.50;;;15.23;;
25758;SDS011;13604;52.496;13.456;2023-09-12T02:04:19;22.75;;;15.23;;
25758;SDS011;13604;52.496;13.456;2023-09-12T02:06:45;22.00;;;15.27;;
25758;SDS011;13604;52.496;13.456;2023-09-12T02:09:10;23.25;;;16.02;;
25758;SDS011;13604;52.496;13.456;2023-09-12T02:11:35;24.05;;;15.50;;
25758;SDS011;13604;52.496;13.456;2023-09-12T02:14:01;18.40;;;14.57;;
25758;SDS011;13604;52.496;13.456;2023-09-12T02:16:26;21.23;;;15.63;;
25758;SDS011;13604;52.496;13.456;2023-09-12T02:18:51;23.17;;;15.07;;
25758;SDS011;13604;52.496;13.456;2023-09-12T02:21:16;22.88;;;15.05;;
25758;SDS011;13604;52.496;13.456;2023-09-12T02:23:42;20.35;;;15.57;;
25758;SDS011;13604;52.496;13.456;2023-09-12T02:26:07;21.80;;;14.45;;
25758;SDS011;13604;52.496;13.456;2023-09-12T02:28:33;19.40;;;15.30;;
25758;SDS011;13604;52.496;13.456;2023-09-12T02:30:58;22.23;;;15.55;;
25758;SDS011;13604;52.496;13.456;2023-09-12T02:33:23;24.60;;;15.45;;
25758;SDS011;13604;52.496;13.456;2023-09-12T02:35:49;18.98;;;14.90;;
25758;SDS011;13604;52.496;13.456;2023-09-12T02:38:14;22.42;;;14.82;;
25758;SDS011;13604;52.496;13.456;2023-09-12T02:40:39;20.15;;;14.25;;
25758;SDS011;13604;52.496;13.456;2023-09-12T02:43:05;22.50;;;14.18;;
25758;SDS011;13604;52.496;13.456;2023-09-12T02:45:30;23.35;;;15.60;;
25758;SDS011;13604;52.496;13.456;2023-09-12T02:47:55;22.73;;;15.45;;
25758;SDS011;13604;52.496;13.456;2023-09-12T02:50:21;17.40;;;13.95;;
25758;SDS011;13604;52.496;13.456;2023-09-12T02:52:46;18.38;;;14.02;;
25758;SDS011;13604;52.496;13.456;2023-09-12T02:55:11;18.85;;;13.93;;
25758;SDS011;13604;52.496;13.456;2023-09-12T02:57:37;19.17;;;14.77;;
25758;SDS011;13604;52.496;13.456;2023-09-12T03:00:02;19.58;;;14.30;;
25758;SDS011;13604;52.496;13.456;2023-09-12T03:02:31;20.27;;;14.93;;
25758;SDS011;13604;52.496;13.456;2023-09-12T03:04:56;23.17;;;15.75;;
25758;SDS011;13604;52.496;13.456;2023-09-12T03:07:21;20.60;;;14.65;;
25758;SDS011;13604;52.496;13.456;2023-09-12T03:09:49;18.92;;;15.10;;
25758;SDS011;13604;52.496;13.456;2023-09-12T03:12:15;19.23;;;15.10;;
25758;SDS011;13604;52.496;13.456;2023-09-12T03:14:40;20.25;;;14.23;;
25758;SDS011;13604;52.496;13.456;2023-09-12T03:17:06;18.45;;;14.73;;
25758;SDS011;13604;52.496;13.456;2023-09-12T03:19:31;23.35;;;14.27;;
25758;SDS011;13604;52.496;13.456;2023-09-12T03:21:56;23.00;;;15.70;;
25758;SDS011;13604;52.496;13.456;2023-09-12T03:24:22;19.52;;;15.60;;
25758;SDS011;13604;52.496;13.456;2023-09-12T03:26:49;20.45;;;14.43;;
25758;SDS011;13604;52.496;13.456;2023-09-12T03:29:15;20.25;;;15.20;;
25758;SDS011;13604;52.496;13.456;2023-09-12T03:31:40;19.85;;;15.50;;
25758;SDS011;13604;52.496;13.456;2023-09-12T03:34:05;21.83;;;15.48;;
25758;SDS011;13604;52.496;13.456;2023-09-12T03:36:31;19.48;;;15.63;;
25758;SDS011;13604;52.496;13.456;2023-09-12T03:38:56;20.55;;;15.80;;
25758;SDS011;13604;52.496;13.456;2023-09-12T03:41:21;26.27;;;16.95;;
25758;SDS011;13604;52.496;13.456;2023-09-12T03:43:53;22.13;;;17.30;;
25758;SDS011;13604;52.496;13.456;2023-09-12T03:46:20;23.13;;;16.85;;
25758;SDS011;13604;52.496;13.456;2023-09-12T03:48:45;23.20;;;17.27;;
25758;SDS011;13604;52.496;13.456;2023-09-12T03:51:11;22.33;;;16.70;;
25758;SDS011;13604;52.496;13.456;2023-09-12T03:53:37;22.27;;;17.77;;
25758;SDS011;13604;52.496;13.456;2023-09-12T03:56:02;23.85;;;17.55;;
25758;SDS011;13604;52.496;13.456;2023-09-12T03:58:27;23.40;;;17.65;;
25758;SDS011;13604;52.496;13.456;2023-09-12T04:00:53;19.70;;;16.90;;
25758;SDS011;13604;52.496;13.456;2023-09-12T04:03:18;25.77;;;16.73;;
25758;SDS011;13604;52.496;13.456;2023-09-12T04:05:46;29.67;;;17.58;;
25758;SDS011;13604;52.496;13.456;2023-09-12T04:08:12;23.15;;;17.70;;
25758;SDS011;13604;52.496;13.456;2023-09-12T04:10:37;27.42;;;18.88;;
25758;SDS011;13604;52.496;13.456;2023-09-12T04:13:02;21.95;;;17.70;;
25758;SDS011;13604;52.496;13.456;2023-09-12T04:15:28;23.58;;;16.50;;
25758;SDS011;13604;52.496;13.456;2023-09-12T04:17:53;26.50;;;18.08;;
25758;SDS011;13604;52.496;13.456;2023-09-12T04:20:18;24.98;;;18.85;;
25758;SDS011;13604;52.496;13.456;2023-09-12T04:22:43;25.23;;;18.85;;
25758;SDS011;13604;52.496;13.456;2023-09-12T04:25:09;27.30;;;18.75;;
25758;SDS011;13604;52.496;13.456;2023-09-12T04:27:34;23.63;;;18.25;;
25758;SDS011;13604;52.496;13.456;2023-09-12T04:30:00;27.58;;;20.30;;
25758;SDS011;13604;52.496;13.456;2023-09-12T04:32:25;24.23;;;19.00;;
25758;SDS011;13604;52.496;13.456;2023-09-12T04:34:50;24.00;;;19.00;;
25758;SDS011;13604;52.496;13.456;2023-09-12T04:37:16;24.73;;;18.90;;
25758;SDS011;13604;52.496;13.456;2023-09-12T04:39:41;28.55;;;18.73;;
25758;SDS011;13604;52.496;13.456;2023-09-12T04:42:07;29.20;;;19.88;;
25758;SDS011;13604;52.496;13.456;2023-09-12T04:44:35;24.70;;;18.85;;
25758;SDS011;13604;52.496;13.456;2023-09-12T04:47:04;23.20;;;19.15;;
25758;SDS011;13604;52.496;13.456;2023-09-12T04:49:30;26.65;;;19.77;;
25758;SDS011;13604;52.496;13.456;2023-09-12T04:51:55;24.55;;;19.52;;
25758;SDS011;13604;52.496;13.456;2023-09-12T04:54:20;28.65;;;19.50;;
25758;SDS011;13604;52.496;13.456;2023-09-12T04:56:46;25.25;;;18.98;;
25758;SDS011;13604;52.496;13.456;2023-09-12T04:59:12;24.23;;;18.83;;
25758;SDS011;13604;52.496;13.456;2023-09-12T05:01:37;30.23;;;19.35;;
25758;SDS011;13604;52.496;13.456;2023-09-12T05:04:02;28.52;;;19.83;;
25758;SDS011;13604;52.496;13.456;2023-09-12T05:06:28;26.60;;;19.70;;
25758;SDS011;13604;52.496;13.456;2023-09-12T05:08:53;27.42;;;19.85;;
25758;SDS011;13604;52.496;13.456;2023-09-12T05:11:19;24.40;;;19.08;;
25758;SDS011;13604;52.496;13.456;2023-09-12T05:13:44;21.70;;;18.23;;
25758;SDS011;13604;52.496;13.456;2023-09-12T05:16:09;24.20;;;19.63;;
25758;SDS011;13604;52.496;13.456;2023-09-12T05:18:35;24.88;;;19.27;;
25758;SDS011;13604;52.496;13.456;2023-09-12T05:21:00;24.13;;;19.65;;
25758;SDS011;13604;52.496;13.456;2023-09-12T05:23:25;28.02;;;20.52;;
25758;SDS011;13604;52.496;13.456;2023-09-12T05:25:50;28.80;;;18.98;;
25758;SDS011;13604;52.496;13.456;2023-09-12T05:28:16;25.92;;;19.48;;
25758;SDS011;13604;52.496;13.456;2023-09-12T05:30:42;22.42;;;19.80;;
25758;SDS011;13604;52.496;13.456;2023-09-12T05:33:08;27.85;;;18.75;;
25758;SDS011;13604;52.496;13.456;2023-09-12T05:35:33;31.83;;;20.10;;
25758;SDS011;13604;52.496;13.456;2023-09-12T05:37:58;28.83;;;21.95;;
25758;SDS011;13604;52.496;13.456;2023-09-12T05:40:23;29.30;;;19.98;;
25758;SDS011;13604;52.496;13.456;2023-09-12T05:42:49;28.23;;;19.13;;
25758;SDS011;13604;52.496;13.456;2023-09-12T05:45:14;22.60;;;16.70;;
25758;SDS011;13604;52.496;13.456;2023-09-12T05:47:39;21.38;;;17.25;;
25758;SDS011;13604;52.496;13.456;2023-09-12T05:50:05;23.48;;;17.73;;
25758;SDS011;13604;52.496;13.456;2023-09-12T05:52:31;20.50;;;16.10;;
25758;SDS011;13604;52.496;13.456;2023-09-12T05:54:57;23.60;;;17.42;;
25758;SDS011;13604;52.496;13.456;2023-09-12T05:57:22;25.60;;;18.77;;
25758;SDS011;13604;52.496;13.456;2023-09-12T05:59:48;21.45;;;17.73;;
25758;SDS011;13604;52.496;13.456;2023-09-12T06:02:14;19.98;;;15.48;;
25758;SDS011;13604;52.496;13.456;2023-09-12T06:04:39;21.15;;;15.35;;
25758;SDS011;13604;52.496;13.456;2023-09-12T06:07:04;22.92;;;16.05;;
25758;SDS011;13604;52.496;13.456;2023-09-12T06:09:30;24.08;;;17.73;;
25758;SDS011;13604;52.496;13.456;2023-09-12T06:11:55;20.45;;;15.75;;
25758;SDS011;13604;52.496;13.456;2023-09-12T06:14:21;21.63;;;16.75;;
25758;SDS011;13604;52.496;13.456;2023-09-12T06:16:46;22.63;;;16.33;;
25758;SDS011;13604;52.496;13.456;2023-09-12T06:19:11;27.98;;;17.23;;
25758;SDS011;13604;52.496;13.456;2023-09-12T06:21:37;26.58;;;16.42;;
25758;SDS011;13604;52.496;13.456;2023-09-12T06:24:09;25.02;;;16.23;;
25758;SDS011;13604;52.496;13.456;2023-09-12T06:26:36;22.80;;;15.88;;
25758;SDS011;13604;52.496;13.456;2023-09-12T06:29:02;19.90;;;15.10;;
25758;SDS011;13604;52.496;13.456;2023-09-12T06:31:27;26.20;;;16.15;;
25758;SDS011;13604;52.496;13.456;2023-09-12T06:33:53;23.83;;;16.50;;
25758;SDS011;13604;52.496;13.456;2023-09-12T06:36:18;28.05;;;16.30;;
25758;SDS011;13604;52.496;13.456;2023-09-12T06:38:43;36.92;;;17.98;;
25758;SDS011;13604;52.496;13.456;2023-09-12T06:41:09;27.23;;;15.90;;
25758;SDS011;13604;52.496;13.456;2023-09-12T06:43:34;26.65;;;15.75;;
25758;SDS011;13604;52.496;13.456;2023-09-12T06:45:59;31.00;;;15.98;;
25758;SDS011;13604;52.496;13.456;2023-09-12T06:48:25;32.92;;;15.90;;
25758;SDS011;13604;52.496;13.456;2023-09-12T06:50:50;26.52;;;13.73;;
25758;SDS011;13604;52.496;13.456;2023-09-12T06:53:15;26.38;;;13.93;;
25758;SDS011;13604;52.496;13.456;2023-09-12T06:55:40;25.30;;;14.50;;
25758;SDS011;13604;52.496;13.456;2023-09-12T06:58:06;22.95;;;13.10;;
25758;SDS011;13604;52.496;13.456;2023-09-12T07:00:32;24.33;;;11.45;;
25758;SDS011;13604;52.496;13.456;2023-09-12T07:02:57;19.73;;;11.27;;
25758;SDS011;13604;52.496;13.456;2023-09-12T07:05:23;23.77;;;11.80;;
25758;SDS011;13604;52.496;13.456;2023-09-12T07:07:48;20.38;;;10.75;;
25758;SDS011;13604;52.496;13.456;2023-09-12T07:10:13;18.50;;;10.05;;
25758;SDS011;13604;52.496;13.456;2023-09-12T07:12:38;14.02;;;10.07;;
25758;SDS011;13604;52.496;13.456;2023-09-12T07:15:04;16.38;;;9.68;;
25758;SDS011;13604;52.496;13.456;2023-09-12T07:17:30;20.10;;;10.07;;
25758;SDS011;13604;52.496;13.456;2023-09-12T07:19:55;16.58;;;9.00;;
25758;SDS011;13604;52.496;13.456;2023-09-12T07:22:20;13.60;;;8.60;;
25758;SDS011;13604;52.496;13.456;2023-09-12T07:24:46;14.77;;;9.05;;
25758;SDS011;13604;52.496;13.456;2023-09-12T07:27:11;14.50;;;9.07;;
25758;SDS011;13604;52.496;13.456;2023-09-12T07:29:37;15.35;;;8.88;;
25758;SDS011;13604;52.496;13.456;2023-09-12T07:32:03;17.98;;;8.00;;
25758;SDS011;13604;52.496;13.456;2023-09-12T07:34:28;17.50;;;8.43;;
25758;SDS011;13604;52.496;13.456;2023-09-12T07:36:54;14.35;;;9.25;;
25758;SDS011;13604;52.496;13.456;2023-09-12T07:39:19;11.60;;;8.00;;
25758;SDS011;13604;52.496;13.456;2023-09-12T07:41:45;13.52;;;8.20;;
25758;SDS011;13604;52.496;13.456;2023-09-12T07:44:11;15.48;;;8.20;;
25758;SDS011;13604;52.496;13.456;2023-09-12T07:46:39;14.05;;;8.15;;
25758;SDS011;13604;52.496;13.456;2023-09-12T07:49:04;11.13;;;7.72;;
25758;SDS011;13604;52.496;13.456;2023-09-12T07:51:29;14.77;;;8.48;;
25758;SDS011;13604;52.496;13.456;2023-09-12T07:53:55;10.88;;;7.63;;
25758;SDS011;13604;52.496;13.456;2023-09-12T07:56:20;17.52;;;7.63;;
25758;SDS011;13604;52.496;13.456;2023-09-12T07:58:45;10.05;;;7.28;;
25758;SDS011;13604;52.496;13.456;2023-09-12T08:01:11;11.93;;;7.40;;
25758;SDS011;13604;52.496;13.456;2023-09-12T08:03:36;17.23;;;8.50;;
25758;SDS011;13604;52.496;13.456;2023-09-12T08:06:03;11.95;;;7.65;;
25758;SDS011;13604;52.496;13.456;2023-09-12T08:08:29;12.55;;;7.30;;
25758;SDS011;13604;52.496;13.456;2023-09-12T08:10:55;12.88;;;7.30;;
25758;SDS011;13604;52.496;13.456;2023-09-12T08:13:22;16.80;;;7.30;;
25758;SDS011;13604;52.496;13.456;2023-09-12T08:15:47;13.35;;;6.80;;
25758;SDS011;13604;52.496;13.456;2023-09-12T08:18:12;14.68;;;6.85;;
25758;SDS011;13604;52.496;13.456;2023-09-12T08:20:37;17.35;;;7.55;;
25758;SDS011;13604;52.496;13.456;2023-09-12T08:23:03;17.35;;;7.15;;
25758;SDS011;13604;52.496;13.456;2023-09-12T08:25:28;14.40;;;6.28;;
25758;SDS011;13604;52.496;13.456;2023-09-12T08:27:53;16.40;;;6.40;;
25758;SDS011;13604;52.496;13.456;2023-09-12T08:30:19;14.18;;;6.75;;
25758;SDS011;13604;52.496;13.456;2023-09-12T08:32:44;16.02;;;6.47;;
25758;SDS011;13604;52.496;13.456;2023-09-12T08:35:10;17.23;;;7.00;;
25758;SDS011;13604;52.496;13.456;2023-09-12T08:37:37;18.15;;;6.55;;
25758;SDS011;13604;52.496;13.456;2023-09-12T08:40:03;21.42;;;6.78;;
25758;SDS011;13604;52.496;13.456;2023-09-12T08:42:32;16.88;;;6.28;;
25758;SDS011;13604;52.496;13.456;2023-09-12T08:45:01;11.57;;;5.30;;
25758;SDS011;13604;52.496;13.456;2023-09-12T08:47:28;13.27;;;6.10;;
25758;SDS011;13604;52.496;13.456;2023-09-12T08:49:54;15.10;;;6.18;;
25758;SDS011;13604;52.496;13.456;2023-09-12T08:52:21;13.95;;;5.70;;
25758;SDS011;13604;52.496;13.456;2023-09-12T08:54:46;12.30;;;5.87;;
25758;SDS011;13604;52.496;13.456;2023-09-12T08:57:12;13.80;;;5.88;;
25758;SDS011;13604;52.496;13.456;2023-09-12T08:59:38;14.88;;;6.32;;
25758;SDS011;13604;52.496;13.456;2023-09-12T09:02:05;11.23;;;5.78;;
25758;SDS011;13604;52.496;13.456;2023-09-12T09:04:33;15.65;;;5.65;;
25758;SDS011;13604;52.496;13.456;2023-09-12T09:07:00;14.27;;;6.00;;
25758;SDS011;13604;52.496;13.456;2023-09-12T09:09:28;17.20;;;5.65;;
25758;SDS011;13604;52.496;13.456;2023-09-12T09:11:53;12.95;;;6.18;;
25758;SDS011;13604;52.496;13.456;2023-09-12T09:14:19;12.10;;;4.60;;
25758;SDS011;13604;52.496;13.456;2023-09-12T09:16:44;8.83;;;5.07;;
25758;SDS011;13604;52.496;13.456;2023-09-12T09:19:09;15.52;;;5.47;;
25758;SDS011;13604;52.496;13.456;2023-09-12T09:21:35;15.40;;;4.55;;
25758;SDS011;13604;52.496;13.456;2023-09-12T09:24:04;12.40;;;4.60;;
25758;SDS011;13604;52.496;13.456;2023-09-12T09:26:41;11.68;;;5.03;;
25758;SDS011;13604;52.496;13.456;2023-09-12T09:29:17;16.88;;;5.82;;
25758;SDS011;13604;52.496;13.456;2023-09-12T09:31:45;15.70;;;4.85;;
25758;SDS011;13604;52.496;13.456;2023-09-12T09:34:15;14.73;;;5.10;;
25758;SDS011;13604;52.496;13.456;2023-09-12T09:36:43;14.25;;;5.05;;
25758;SDS011;13604;52.496;13.456;2023-09-12T09:39:18;15.60;;;5.93;;
25758;SDS011;13604;52.496;13.456;2023-09-12T09:41:48;14.90;;;4.93;;
25758;SDS011;13604;52.496;13.456;2023-09-12T09:44:14;18.10;;;6.18;;
25758;SDS011;13604;52.496;13.456;2023-09-12T09:46:42;17.08;;;5.65;;
25758;SDS011;13604;52.496;13.456;2023-09-12T09:49:15;17.88;;;6.07;;
25758;SDS011;13604;52.496;13.456;2023-09-12T09:51:42;21.25;;;6.18;;
25758;SDS011;13604;52.496;13.456;2023-09-12T09:54:08;19.92;;;6.45;;
25758;SDS011;13604;52.496;13.456;2023-09-12T09:56:47;16.38;;;5.80;;
25758;SDS011;13604;52.496;13.456;2023-09-12T09:59:14;14.95;;;5.30;;
25758;SDS011;13604;52.496;13.456;2023-09-12T10:01:41;13.20;;;5.75;;
25758;SDS011;13604;52.496;13.456;2023-09-12T10:04:08;12.43;;;5.93;;
25758;SDS011;13604;52.496;13.456;2023-09-12T10:06:35;12.77;;;6.47;;
25758;SDS011;13604;52.496;13.456;2023-09-12T10:09:01;15.25;;;5.78;;
25758;SDS011;13604;52.496;13.456;2023-09-12T10:11:31;12.38;;;6.30;;
25758;SDS011;13604;52.496;13.456;2023-09-12T10:13:59;16.42;;;6.90;;
25758;SDS011;13604;52.496;13.456;2023-09-12T10:16:35;22.92;;;7.88;;
25758;SDS011;13604;52.496;13.456;2023-09-12T10:19:14;15.55;;;7.38;;
25758;SDS011;13604;52.496;13.456;2023-09-12T10:21:49;12.30;;;6.53;;
25758;SDS011;13604;52.496;13.456;2023-09-12T10:24:18;15.00;;;6.70;;
25758;SDS011;13604;52.496;13.456;2023-09-12T10:26:46;10.77;;;6.05;;
25758;SDS011;13604;52.496;13.456;2023-09-12T10:29:14;13.73;;;6.75;;
25758;SDS011;13604;52.496;13.456;2023-09-12T10:31:40;11.15;;;6.72;;
25758;SDS011;13604;52.496;13.456;2023-09-12T10:34:06;8.73;;;6.18;;
25758;SDS011;13604;52.496;13.456;2023-09-12T10:36:34;16.50;;;6.70;;
25758;SDS011;13604;52.496;13.456;2023-09-12T10:39:01;20.98;;;7.55;;
25758;SDS011;13604;52.496;13.456;2023-09-12T10:41:29;28.10;;;7.43;;
25758;SDS011;13604;52.496;13.456;2023-09-12T10:43:55;12.00;;;5.78;;
25758;SDS011;13604;52.496;13.456;2023-09-12T10:46:22;12.23;;;7.07;;
25758;SDS011;13604;52.496;13.456;2023-09-12T10:48:48;14.73;;;6.25;;
25758;SDS011;13604;52.496;13.456;2023-09-12T10:51:14;18.30;;;6.50;;
25758;SDS011;13604;52.496;13.456;2023-09-12T10:53:44;12.98;;;6.43;;
25758;SDS011;13604;52.496;13.456;2023-09-12T11:02:35;18.77;;;6.07;;
25758;SDS011;13604;52.496;13.456;2023-09-12T11:05:06;12.25;;;5.97;;
25758;SDS011;13604;52.496;13.456;2023-09-12T11:07:51;16.92;;;5.80;;
25758;SDS011;13604;52.496;13.456;2023-09-12T11:10:21;19.17;;;6.00;;
25758;SDS011;13604;52.496;13.456;2023-09-12T11:12:48;14.15;;;5.45;;
25758;SDS011;13604;52.496;13.456;2023-09-12T11:15:19;15.13;;;6.00;;
25758;SDS011;13604;52.496;13.456;2023-09-12T11:17:45;14.18;;;5.45;;
25758;SDS011;13604;52.496;13.456;2023-09-12T11:20:11;18.77;;;5.93;;
25758;SDS011;13604;52.496;13.456;2023-09-12T11:22:38;11.80;;;5.25;;
25758;SDS011;13604;52.496;13.456;2023-09-12T11:30:20;17.80;;;5.35;;
25758;SDS011;13604;52.496;13.456;2023-09-12T11:32:47;13.73;;;5.72;;
25758;SDS011;13604;52.496;13.456;2023-09-12T11:35:13;14.32;;;5.70;;
25758;SDS011;13604;52.496;13.456;2023-09-12T11:37:38;12.52;;;5.25;;
25758;SDS011;13604;52.496;13.456;2023-09-12T11:40:23;17.90;;;6.05;;
25758;SDS011;13604;52.496;13.456;2023-09-12T11:42:48;15.80;;;5.38;;
25758;SDS011;13604;52.496;13.456;2023-09-12T11:45:15;12.73;;;5.80;;
25758;SDS011;13604;52.496;13.456;2023-09-12T11:47:42;10.18;;;5.70;;
25758;SDS011;13604;52.496;13.456;2023-09-12T11:50:08;15.07;;;5.53;;
25758;SDS011;13604;52.496;13.456;2023-09-12T11:52:36;16.63;;;5.32;;
25758;SDS011;13604;52.496;13.456;2023-09-12T11:55:01;17.92;;;6.05;;
25758;SDS011;13604;52.496;13.456;2023-09-12T11:57:26;13.97;;;5.73;;
25758;SDS011;13604;52.496;13.456;2023-09-12T11:59:51;14.80;;;5.43;;
25758;SDS011;13604;52.496;13.456;2023-09-12T12:02:17;16.55;;;5.20;;
25758;SDS011;13604;52.496;13.456;2023-09-12T12:04:42;13.77;;;5.00;;
25758;SDS011;13604;52.496;13.456;2023-09-12T12:07:10;9.47;;;4.70;;
25758;SDS011;13604;52.496;13.456;2023-09-12T12:09:35;13.23;;;4.88;;
25758;SDS011;13604;52.496;13.456;2023-09-12T12:12:13;10.25;;;4.60;;
25758;SDS011;13604;52.496;13.456;2023-09-12T12:14:39;9.82;;;5.25;;
25758;SDS011;13604;52.496;13.456;2023-09-12T12:17:05;11.70;;;5.20;;
25758;SDS011;13604;52.496;13.456;2023-09-12T12:19:31;16.33;;;5.90;;
25758;SDS011;13604;52.496;13.456;2023-09-12T12:21:57;13.10;;;4.93;;
25758;SDS011;13604;52.496;13.456;2023-09-12T12:24:22;8.87;;;4.80;;
25758;SDS011;13604;52.496;13.456;2023-09-12T12:26:47;7.57;;;4.60;;
25758;SDS011;13604;52.496;13.456;2023-09-12T12:29:12;11.40;;;5.00;;
25758;SDS011;13604;52.496;13.456;2023-09-12T12:31:38;12.02;;;5.30;;
25758;SDS011;13604;52.496;13.456;2023-09-12T12:34:04;8.90;;;4.50;;
25758;SDS011;13604;52.496;13.456;2023-09-12T12:36:30;10.35;;;4.60;;
25758;SDS011;13604;52.496;13.456;2023-09-12T12:38:56;9.30;;;4.33;;
25758;SDS011;13604;52.496;13.456;2023-09-12T12:41:22;9.82;;;4.20;;
25758;SDS011;13604;52.496;13.456;2023-09-12T12:43:49;7.50;;;4.25;;
25758;SDS011;13604;52.496;13.456;2023-09-12T12:46:20;10.30;;;4.78;;
25758;SDS011;13604;52.496;13.456;2023-09-12T12:48:46;12.15;;;5.10;;
25758;SDS011;13604;52.496;13.456;2023-09-12T12:51:24;9.48;;;4.57;;
25758;SDS011;13604;52.496;13.456;2023-09-12T12:53:51;13.63;;;4.68;;
25758;SDS011;13604;52.496;13.456;2023-09-12T12:56:19;8.80;;;4.40;;
25758;SDS011;13604;52.496;13.456;2023-09-12T12:58:49;12.85;;;4.68;;
25758;SDS011;13604;52.496;13.456;2023-09-12T13:02:35;12.13;;;4.28;;
25758;SDS011;13604;52.496;13.456;2023-09-12T13:05:01;10.02;;;4.30;;
25758;SDS011;13604;52.496;13.456;2023-09-12T13:07:27;14.02;;;4.50;;
25758;SDS011;13604;52.496;13.456;2023-09-12T13:09:52;10.40;;;4.50;;
25758;SDS011;13604;52.496;13.456;2023-09-12T13:12:17;12.70;;;4.60;;
25758;SDS011;13604;52.496;13.456;2023-09-12T13:14:43;15.50;;;4.88;;
25758;SDS011;13604;52.496;13.456;2023-09-12T13:17:09;8.25;;;4.13;;
25758;SDS011;13604;52.496;13.456;2023-09-12T13:19:34;10.40;;;4.45;;
25758;SDS011;13604;52.496;13.456;2023-09-12T13:22:00;8.18;;;3.92;;
25758;SDS011;13604;52.496;13.456;2023-09-12T13:24:25;12.10;;;4.40;;
25758;SDS011;13604;52.496;13.456;2023-09-12T13:26:51;7.82;;;4.65;;
25758;SDS011;13604;52.496;13.456;2023-09-12T13:29:17;10.85;;;4.40;;
25758;SDS011;13604;52.496;13.456;2023-09-12T13:31:42;6.18;;;4.40;;
25758;SDS011;13604;52.496;13.456;2023-09-12T13:34:07;14.00;;;5.00;;
25758;SDS011;13604;52.496;13.456;2023-09-12T13:36:33;8.43;;;4.17;;
25758;SDS011;13604;52.496;13.456;2023-09-12T13:38:58;9.97;;;4.13;;
25758;SDS011;13604;52.496;13.456;2023-09-12T13:41:23;15.57;;;4.67;;
25758;SDS011;13604;52.496;13.456;2023-09-12T13:43:50;13.45;;;4.75;;
25758;SDS011;13604;52.496;13.456;2023-09-12T13:46:15;15.00;;;4.90;;
25758;SDS011;13604;52.496;13.456;2023-09-12T13:48:41;13.23;;;4.88;;
25758;SDS011;13604;52.496;13.456;2023-09-12T13:51:06;11.10;;;4.70;;
25758;SDS011;13604;52.496;13.456;2023-09-12T13:53:32;16.63;;;4.77;;
25758;SDS011;13604;52.496;13.456;2023-09-12T13:55:57;10.93;;;4.23;;
25758;SDS011;13604;52.496;13.456;2023-09-12T13:58:23;12.13;;;4.43;;
25758;SDS011;13604;52.496;13.456;2023-09-12T14:02:34;16.88;;;4.70;;
25758;SDS011;13604;52.496;13.456;2023-09-12T14:04:59;20.90;;;5.37;;
25758;SDS011;13604;52.496;13.456;2023-09-12T14:07:25;12.02;;;4.28;;
25758;SDS011;13604;52.496;13.456;2023-09-12T14:09:51;11.73;;;4.60;;
25758;SDS011;13604;52.496;13.456;2023-09-12T14:12:19;10.65;;;4.60;;
25758;SDS011;13604;52.496;13.456;2023-09-12T14:14:45;9.52;;;4.53;;
25758;SDS011;13604;52.496;13.456;2023-09-12T14:17:11;14.35;;;4.55;;
25758;SDS011;13604;52.496;13.456;2023-09-12T14:19:36;10.35;;;4.82;;
25758;SDS011;13604;52.496;13.456;2023-09-12T14:22:02;14.07;;;4.65;;
25758;SDS011;13604;52.496;13.456;2023-09-12T14:24:28;14.05;;;4.32;;
25758;SDS011;13604;52.496;13.456;2023-09-12T14:26:53;11.57;;;4.57;;
25758;SDS011;13604;52.496;13.456;2023-09-12T14:29:18;11.40;;;4.33;;